createdAt,value
2022-10-17T00:01:00.931Z,15.50
2022-10-17T00:03:34.749Z,15.10
2022-10-17T00:06:12.140Z,15.10
2022-10-17T00:08:42.056Z,16.70
2022-10-17T00:11:20.986Z,16.30
2022-10-17T00:13:50.489Z,18.90
2022-10-17T00:16:29.654Z,16.50
2022-10-17T00:18:57.594Z,15.40
2022-10-17T00:21:26.242Z,16.80
2022-10-17T00:23:54.639Z,17.30
2022-10-17T00:26:23.126Z,18.10
2022-10-17T00:28:52.622Z,15.60
2022-10-17T00:31:22.273Z,16.50
2022-10-17T00:33:51.627Z,15.90
2022-10-17T00:36:23.380Z,13.60
2022-10-17T00:38:55.949Z,14.70
2022-10-17T00:41:31.976Z,13.90
2022-10-17T00:44:06.634Z,18.60
2022-10-17T00:46:38.984Z,16.40
2022-10-17T00:49:12.522Z,24.50
2022-10-17T00:51:40.356Z,17.30
2022-10-17T00:54:09.655Z,15.30
2022-10-17T00:56:38.440Z,14.90
2022-10-17T00:59:10.951Z,15.10
2022-10-17T01:01:41.653Z,15.30
2022-10-17T01:04:09.951Z,17.30
2022-10-17T01:06:40.496Z,17.00
2022-10-17T01:09:08.507Z,16.00
2022-10-17T01:11:52.394Z,14.20
2022-10-17T01:14:39.034Z,14.00
2022-10-17T01:17:35.360Z,14.60
2022-10-17T01:20:23.254Z,13.80
2022-10-17T01:23:10.794Z,14.30
2022-10-17T01:26:16.186Z,12.50
2022-10-17T01:29:16.474Z,13.10
2022-10-17T01:31:50.644Z,12.10
2022-10-17T01:34:32.582Z,12.20
2022-10-17T01:37:20.402Z,12.50
2022-10-17T01:40:04.950Z,11.90
2022-10-17T01:42:59.502Z,12.00
2022-10-17T01:45:53.995Z,12.00
2022-10-17T01:48:30.920Z,11.40
2022-10-17T01:51:06.041Z,11.50
2022-10-17T01:53:39.620Z,11.50
2022-10-17T01:56:10.199Z,11.40
2022-10-17T01:58:44.265Z,11.20
2022-10-17T02:01:13.394Z,12.20
2022-10-17T02:03:44.704Z,13.20
2022-10-17T02:06:12.536Z,12.80
2022-10-17T02:08:51.159Z,12.10
2022-10-17T02:11:23.964Z,11.10
2022-10-17T02:14:13.786Z,11.70
2022-10-17T02:17:00.102Z,14.10
2022-10-17T02:19:46.727Z,21.30
2022-10-17T02:22:33.427Z,17.20
2022-10-17T02:25:07.857Z,16.20
2022-10-17T02:27:47.949Z,17.60
2022-10-17T02:30:42.247Z,15.10
2022-10-17T02:33:35.546Z,12.90
2022-10-17T02:36:09.811Z,12.60
2022-10-17T02:38:39.481Z,12.70
2022-10-17T02:41:11.852Z,12.80
2022-10-17T02:43:40.596Z,12.00
2022-10-17T02:46:08.528Z,11.30
2022-10-17T02:48:44.247Z,11.30
2022-10-17T02:51:29.874Z,11.00
2022-10-17T02:54:17.516Z,9.90
2022-10-17T02:57:09.782Z,10.90
2022-10-17T02:59:41.542Z,10.80
2022-10-17T03:02:09.458Z,12.20
2022-10-17T03:04:38.406Z,12.30
2022-10-17T03:07:06.327Z,11.80
2022-10-17T03:09:34.242Z,11.20
2022-10-17T03:12:02.103Z,10.40
2022-10-17T03:14:30.451Z,10.90
2022-10-17T03:16:58.289Z,10.70
2022-10-17T03:19:26.936Z,12.10
2022-10-17T03:21:56.527Z,12.40
2022-10-17T03:24:24.477Z,11.50
2022-10-17T03:26:52.381Z,11.80
2022-10-17T03:29:20.363Z,11.80
2022-10-17T03:31:48.359Z,11.60
2022-10-17T03:34:18.789Z,11.80
2022-10-17T03:36:46.998Z,11.80
2022-10-17T03:39:15.007Z,11.40
2022-10-17T03:41:43.084Z,10.30
2022-10-17T03:44:11.005Z,10.50
2022-10-17T03:46:39.235Z,10.10
2022-10-17T03:49:09.504Z,10.10
2022-10-17T03:51:37.696Z,9.80
2022-10-17T03:54:09.335Z,9.50
2022-10-17T03:56:38.030Z,9.70
2022-10-17T03:59:13.517Z,9.50
2022-10-17T04:01:42.192Z,9.50
2022-10-17T04:04:10.815Z,10.50
2022-10-17T04:06:38.797Z,9.40
2022-10-17T04:09:07.527Z,9.60
2022-10-17T04:11:58.153Z,9.60
2022-10-17T04:14:26.074Z,10.90
2022-10-17T04:16:54.165Z,11.20
2022-10-17T04:19:22.289Z,10.50
2022-10-17T04:21:50.632Z,9.60
2022-10-17T04:24:18.686Z,9.00
2022-10-17T04:26:58.540Z,9.20
2022-10-17T04:29:28.941Z,9.20
2022-10-17T04:32:05.542Z,9.00
2022-10-17T04:37:09.867Z,8.70
2022-10-17T04:39:37.873Z,9.60
2022-10-17T04:42:06.328Z,9.70
2022-10-17T04:44:35.677Z,9.70
2022-10-17T04:47:03.800Z,9.70
2022-10-17T04:49:31.852Z,9.40
2022-10-17T04:52:06.955Z,9.60
2022-10-17T04:54:40.769Z,9.90
2022-10-17T04:57:10.590Z,10.70
2022-10-17T04:59:39.884Z,10.70
2022-10-17T05:02:33.948Z,13.10
2022-10-17T05:05:02.927Z,14.70
2022-10-17T05:07:30.895Z,13.90
2022-10-17T05:10:11.436Z,13.80
2022-10-17T05:12:41.007Z,12.80
2022-10-17T05:15:09.595Z,11.80
2022-10-17T05:17:37.611Z,11.80
2022-10-17T05:20:06.902Z,12.10
2022-10-17T05:22:38.246Z,12.00
2022-10-17T05:25:09.580Z,12.70
2022-10-17T05:27:38.265Z,11.60
2022-10-17T05:30:07.520Z,13.00
2022-10-17T05:32:36.518Z,13.90
2022-10-17T05:35:05.054Z,12.30
2022-10-17T05:37:33.182Z,13.80
2022-10-17T05:40:01.785Z,13.10
2022-10-17T05:42:31.166Z,13.60
2022-10-17T05:44:59.628Z,13.40
2022-10-17T05:47:28.013Z,12.30
2022-10-17T05:49:56.061Z,11.80
2022-10-17T05:52:28.690Z,12.40
2022-10-17T05:55:08.415Z,11.60
2022-10-17T05:57:36.471Z,11.30
2022-10-17T06:00:08.724Z,10.90
2022-10-17T06:02:46.060Z,10.60
2022-10-17T06:05:16.032Z,10.50
2022-10-17T06:07:44.785Z,9.70
2022-10-17T06:10:16.389Z,10.30
2022-10-17T06:12:44.499Z,9.60
2022-10-17T06:15:13.286Z,9.80
2022-10-17T06:17:44.192Z,9.60
2022-10-17T06:20:12.293Z,10.00
2022-10-17T06:22:40.187Z,9.50
2022-10-17T06:25:13.802Z,8.60
2022-10-17T06:27:42.489Z,8.60
2022-10-17T06:30:11.630Z,9.40
2022-10-17T06:32:39.600Z,9.60
2022-10-17T06:35:08.003Z,8.90
2022-10-17T06:37:38.103Z,7.00
2022-10-17T06:40:12.213Z,8.20
2022-10-17T06:42:41.161Z,9.10
2022-10-17T06:45:29.347Z,9.40
2022-10-17T06:48:18.949Z,9.70
2022-10-17T06:51:11.401Z,9.30
2022-10-17T06:53:49.754Z,8.70
2022-10-17T06:56:30.748Z,9.70
2022-10-17T06:59:15.790Z,9.80
2022-10-17T07:01:51.384Z,9.80
2022-10-17T07:04:19.758Z,8.90
2022-10-17T07:06:47.703Z,9.40
2022-10-17T07:09:19.025Z,9.80
2022-10-17T07:11:47.133Z,9.70
2022-10-17T07:14:18.400Z,9.70
2022-10-17T07:16:47.405Z,10.20
2022-10-17T07:19:19.259Z,9.60
2022-10-17T07:21:47.278Z,9.40
2022-10-17T07:24:15.111Z,9.60
2022-10-17T07:26:47.147Z,8.90
2022-10-17T07:29:15.722Z,10.20
2022-10-17T07:31:49.010Z,10.40
2022-10-17T07:34:16.871Z,11.00
2022-10-17T07:36:46.187Z,11.90
2022-10-17T07:39:15.581Z,11.40
2022-10-17T07:41:43.479Z,11.00
2022-10-17T07:44:11.698Z,10.00
2022-10-17T07:46:45.948Z,9.50
2022-10-17T07:49:14.149Z,10.20
2022-10-17T07:51:42.454Z,9.50
2022-10-17T07:54:10.740Z,10.40
2022-10-17T07:56:38.666Z,11.10
2022-10-17T07:59:09.186Z,11.00
2022-10-17T08:01:38.000Z,11.30
2022-10-17T08:04:05.811Z,12.30
2022-10-17T08:06:33.824Z,11.30
2022-10-17T08:09:02.200Z,10.80
2022-10-17T08:11:30.084Z,10.20
2022-10-17T08:13:57.964Z,8.70
2022-10-17T08:16:25.881Z,8.50
2022-10-17T08:18:54.091Z,8.50
2022-10-17T08:21:22.447Z,8.50
2022-10-17T08:23:50.369Z,8.30
2022-10-17T08:26:20.119Z,8.20
2022-10-17T08:28:48.701Z,7.10
2022-10-17T08:31:19.765Z,7.60
2022-10-17T08:33:49.445Z,7.00
2022-10-17T08:36:19.006Z,6.80
2022-10-17T08:38:52.415Z,6.90
2022-10-17T08:41:39.505Z,7.20
2022-10-17T08:44:16.174Z,6.70
2022-10-17T08:46:48.166Z,7.10
2022-10-17T08:49:37.862Z,6.80
2022-10-17T08:52:15.346Z,6.70
2022-10-17T08:54:48.677Z,7.20
2022-10-17T08:57:18.185Z,7.50
2022-10-17T08:59:52.106Z,8.10
2022-10-17T09:02:39.107Z,7.00
2022-10-17T09:05:31.247Z,7.30
2022-10-17T09:08:03.307Z,7.40
2022-10-17T09:10:31.092Z,7.10
2022-10-17T09:16:18.963Z,7.30
2022-10-17T09:19:01.208Z,7.50
2022-10-17T09:21:44.868Z,7.30
2022-10-17T09:24:33.881Z,7.20
2022-10-17T09:27:02.928Z,7.00
2022-10-17T09:29:36.932Z,7.60
2022-10-17T09:32:20.969Z,7.20
2022-10-17T09:34:49.003Z,6.80
2022-10-17T09:37:17.870Z,6.50
2022-10-17T09:39:46.067Z,7.60
2022-10-17T09:42:19.433Z,7.10
2022-10-17T09:44:52.997Z,7.50
2022-10-17T09:47:45.778Z,7.40
2022-10-17T09:50:25.428Z,10.00
2022-10-17T09:52:54.378Z,13.60
2022-10-17T09:55:45.513Z,10.90
2022-10-17T09:58:13.429Z,11.80
2022-10-17T10:00:43.670Z,11.10
2022-10-17T10:03:17.469Z,10.90
2022-10-17T10:06:05.126Z,11.40
2022-10-17T10:08:37.285Z,10.50
2022-10-17T10:11:11.830Z,10.80
2022-10-17T10:13:43.228Z,9.70
2022-10-17T10:16:32.533Z,10.50
2022-10-17T10:19:00.521Z,11.20
2022-10-17T10:21:29.334Z,11.00
2022-10-17T10:24:13.338Z,10.10
2022-10-17T10:26:45.143Z,10.70
2022-10-17T10:29:36.760Z,9.80
2022-10-17T10:32:09.038Z,9.90
2022-10-17T10:34:39.519Z,10.10
2022-10-17T10:37:18.452Z,9.70
2022-10-17T10:39:50.696Z,10.00
2022-10-17T10:42:31.647Z,9.30
2022-10-17T10:45:43.346Z,9.40
2022-10-17T10:48:25.475Z,8.60
2022-10-17T10:50:58.089Z,9.40
2022-10-17T10:53:44.708Z,9.30
2022-10-17T10:56:19.946Z,9.50
2022-10-17T10:59:00.605Z,9.40
2022-10-17T11:01:45.952Z,8.70
2022-10-17T11:04:19.849Z,8.00
2022-10-17T11:06:50.754Z,7.80
2022-10-17T11:09:55.920Z,6.90
2022-10-17T11:12:35.850Z,7.30
2022-10-17T11:15:09.690Z,6.60
2022-10-17T11:17:44.027Z,6.80
2022-10-17T11:20:23.150Z,7.20
2022-10-17T11:22:58.863Z,6.70
2022-10-17T11:25:41.091Z,8.60
2022-10-17T11:28:15.683Z,6.10
2022-10-17T11:31:03.315Z,7.60
2022-10-17T11:33:36.784Z,6.70
2022-10-17T11:36:08.272Z,7.30
2022-10-17T11:38:47.644Z,7.20
2022-10-17T11:41:34.680Z,7.00
2022-10-17T11:44:23.421Z,6.40
2022-10-17T11:47:11.507Z,6.50
2022-10-17T11:49:47.281Z,6.70
2022-10-17T11:53:02.643Z,5.50
2022-10-17T11:55:32.301Z,5.20
2022-10-17T11:58:12.425Z,5.70
2022-10-17T12:00:48.994Z,4.90
2022-10-17T12:03:23.532Z,5.10
2022-10-17T12:06:04.853Z,5.20
2022-10-17T12:08:47.291Z,5.90
2022-10-17T12:11:23.481Z,4.90
2022-10-17T12:13:54.598Z,5.70
2022-10-17T12:16:23.352Z,5.30
2022-10-17T12:19:19.616Z,5.40
2022-10-17T12:21:57.968Z,5.30
2022-10-17T12:24:40.050Z,5.50
2022-10-17T12:27:38.560Z,6.00
2022-10-17T12:30:06.958Z,6.00
2022-10-17T12:33:03.791Z,5.90
2022-10-17T12:35:25.733Z,5.40
2022-10-17T12:37:57.317Z,4.90
2022-10-17T12:40:35.608Z,5.00
2022-10-17T12:43:15.493Z,6.00
2022-10-17T12:45:51.963Z,5.10
2022-10-17T12:49:02.266Z,5.60
2022-10-17T12:51:35.698Z,5.80
2022-10-17T12:54:16.116Z,5.40
2022-10-17T12:56:49.166Z,5.10
2022-10-17T12:59:21.890Z,5.00
2022-10-17T13:01:53.613Z,5.50
2022-10-17T13:04:22.077Z,6.20
2022-10-17T13:06:54.469Z,5.60
2022-10-17T13:09:52.209Z,5.60
2022-10-17T13:12:27.728Z,5.70
2022-10-17T13:14:56.325Z,5.70
2022-10-17T13:17:31.223Z,5.70
2022-10-17T13:19:59.299Z,5.60
2022-10-17T13:22:33.005Z,6.30
2022-10-17T13:25:16.022Z,5.30
2022-10-17T13:27:44.257Z,6.30
2022-10-17T13:30:32.411Z,5.50
2022-10-17T13:33:02.318Z,6.10
2022-10-17T13:35:59.034Z,6.30
2022-10-17T13:38:28.494Z,5.50
2022-10-17T13:41:05.930Z,6.10
2022-10-17T13:43:39.083Z,5.60
2022-10-17T13:46:32.546Z,6.40
2022-10-17T13:48:59.370Z,5.70
2022-10-17T13:51:27.780Z,5.60
2022-10-17T13:53:56.189Z,6.40
2022-10-17T13:56:28.784Z,6.10
2022-10-17T13:59:01.453Z,5.70
2022-10-17T14:01:30.259Z,5.70
2022-10-17T14:04:08.861Z,6.00
2022-10-17T14:06:46.229Z,6.30
2022-10-17T14:09:29.435Z,6.20
2022-10-17T14:12:16.619Z,6.70
2022-10-17T14:15:11.497Z,6.30
2022-10-17T14:17:39.564Z,7.30
2022-10-17T14:20:48.241Z,7.20
2022-10-17T14:23:21.620Z,7.00
2022-10-17T14:25:46.963Z,7.80
2022-10-17T14:28:16.989Z,7.80
2022-10-17T14:30:56.674Z,7.70
2022-10-17T14:33:30.336Z,7.30
2022-10-17T14:36:00.805Z,8.80
2022-10-17T14:38:30.424Z,7.00
2022-10-17T14:41:42.573Z,6.40
2022-10-17T14:44:30.955Z,6.60
2022-10-17T14:47:30.291Z,7.50
2022-10-17T14:50:04.148Z,7.40
2022-10-17T14:52:33.441Z,7.00
2022-10-17T14:55:22.179Z,7.90
2022-10-17T14:57:50.284Z,7.50
2022-10-17T15:00:20.394Z,7.80
2022-10-17T15:02:49.821Z,8.10
2022-10-17T15:05:19.491Z,8.30
2022-10-17T15:07:47.332Z,8.00
2022-10-17T15:10:24.622Z,8.00
2022-10-17T15:12:59.229Z,8.80
2022-10-17T15:15:39.212Z,9.00
2022-10-17T15:18:08.100Z,8.00
2022-10-17T15:20:36.033Z,7.30
2022-10-17T15:23:04.599Z,7.10
2022-10-17T15:25:32.682Z,7.70
2022-10-17T15:28:00.508Z,7.70
2022-10-17T15:30:32.527Z,8.10
2022-10-17T15:33:00.760Z,8.40
2022-10-17T15:35:29.090Z,7.60
2022-10-17T15:37:56.977Z,8.40
2022-10-17T15:40:30.087Z,11.30
2022-10-17T15:42:58.289Z,10.50
2022-10-17T15:45:26.214Z,11.80
2022-10-17T15:47:57.040Z,10.30
2022-10-17T15:50:24.945Z,8.80
2022-10-17T15:52:52.838Z,7.90
2022-10-17T15:55:20.804Z,9.30
2022-10-17T15:57:49.204Z,9.30
2022-10-17T16:00:21.004Z,9.60
2022-10-17T16:02:49.827Z,10.40
2022-10-17T16:05:25.653Z,9.70
2022-10-17T16:07:54.172Z,9.20
2022-10-17T16:10:23.188Z,8.90
2022-10-17T16:12:51.243Z,8.30
2022-10-17T16:15:25.011Z,8.80
2022-10-17T16:17:54.484Z,9.20
2022-10-17T16:20:23.837Z,9.30
2022-10-17T16:22:59.683Z,9.50
2022-10-17T16:25:29.354Z,10.20
2022-10-17T16:27:59.792Z,10.30
2022-10-17T16:30:29.671Z,10.10
2022-10-17T16:32:57.693Z,12.00
2022-10-17T16:35:31.931Z,10.40
2022-10-17T16:38:03.225Z,10.10
2022-10-17T16:40:31.998Z,9.50
2022-10-17T16:43:00.140Z,10.50
2022-10-17T16:45:28.088Z,14.60
2022-10-17T16:47:56.121Z,19.00
2022-10-17T16:50:24.591Z,23.30
2022-10-17T16:52:52.567Z,21.10
2022-10-17T16:55:20.626Z,18.20
2022-10-17T16:57:49.297Z,18.20
2022-10-17T17:00:18.068Z,18.70
2022-10-17T17:02:48.931Z,20.10
2022-10-17T17:05:16.796Z,19.20
2022-10-17T17:07:47.424Z,18.80
2022-10-17T17:10:16.367Z,18.00
2022-10-17T17:12:44.344Z,22.00
2022-10-17T17:15:12.207Z,24.40
2022-10-17T17:17:55.952Z,26.80
2022-10-17T17:20:24.272Z,31.00
2022-10-17T17:22:52.428Z,34.30
2022-10-17T17:25:21.289Z,36.90
2022-10-17T17:27:49.192Z,31.00
2022-10-17T17:30:17.221Z,29.60
2022-10-17T17:32:45.150Z,28.80
2022-10-17T17:35:13.031Z,32.50
2022-10-17T17:37:40.920Z,39.90
2022-10-17T17:40:09.280Z,34.50
2022-10-17T17:42:37.176Z,35.50
2022-10-17T17:45:05.683Z,37.90
2022-10-17T17:47:33.663Z,35.50
2022-10-17T17:50:03.334Z,34.80
2022-10-17T17:52:31.507Z,32.40
2022-10-17T17:54:59.596Z,32.90
2022-10-17T17:57:29.477Z,33.30
2022-10-17T17:59:57.455Z,32.30
2022-10-17T18:02:25.497Z,34.90
2022-10-17T18:04:53.418Z,29.10
2022-10-17T18:07:21.377Z,29.60
2022-10-17T18:09:50.981Z,29.50
2022-10-17T18:12:18.923Z,30.90
2022-10-17T18:14:47.736Z,31.50
2022-10-17T18:17:15.676Z,31.00
2022-10-17T18:19:43.596Z,28.70
2022-10-17T18:22:11.583Z,27.40
2022-10-17T18:24:39.408Z,33.60
2022-10-17T18:27:07.475Z,36.90
2022-10-17T18:29:35.488Z,40.40
2022-10-17T18:32:03.376Z,40.40
2022-10-17T18:34:31.205Z,39.60
2022-10-17T18:36:59.996Z,38.20
2022-10-17T18:39:27.999Z,39.70
2022-10-17T18:41:55.897Z,42.90
2022-10-17T18:44:23.904Z,41.50
2022-10-17T18:46:51.780Z,46.10
2022-10-17T18:49:20.708Z,49.20
2022-10-17T18:51:48.958Z,48.60
2022-10-17T18:54:21.608Z,49.80
2022-10-17T18:56:52.193Z,47.10
2022-10-17T18:59:20.799Z,47.40
2022-10-17T19:01:49.040Z,46.80
2022-10-17T19:04:16.983Z,43.90
2022-10-17T19:06:44.906Z,42.90
2022-10-17T19:09:14.167Z,39.10
2022-10-17T19:11:42.912Z,37.20
2022-10-17T19:14:13.492Z,31.10
2022-10-17T19:16:47.733Z,29.20
2022-10-17T19:19:21.853Z,33.20
2022-10-17T19:21:50.235Z,34.40
2022-10-17T19:24:21.828Z,35.10
2022-10-17T19:26:53.436Z,37.40
2022-10-17T19:29:24.470Z,37.10
2022-10-17T19:31:52.562Z,40.20
2022-10-17T19:34:20.587Z,40.90
2022-10-17T19:36:48.856Z,40.80
2022-10-17T19:39:22.803Z,39.20
2022-10-17T19:41:50.918Z,37.40
2022-10-17T19:44:18.934Z,36.90
2022-10-17T19:46:49.502Z,37.20
2022-10-17T19:49:17.710Z,36.20
2022-10-17T19:51:45.899Z,40.10
2022-10-17T19:54:15.228Z,41.60
2022-10-17T19:56:43.581Z,41.20
2022-10-17T19:59:13.896Z,42.70
2022-10-17T20:01:42.665Z,40.50
2022-10-17T20:04:12.292Z,37.40
2022-10-17T20:06:41.319Z,34.80
2022-10-17T20:09:14.051Z,37.20
2022-10-17T20:11:44.927Z,33.00
2022-10-17T20:14:12.851Z,33.20
2022-10-17T20:16:40.723Z,32.80
2022-10-17T20:19:11.189Z,34.50
2022-10-17T20:21:39.950Z,31.40
2022-10-17T20:24:11.598Z,25.70
2022-10-17T20:26:40.548Z,24.70
2022-10-17T20:29:13.211Z,26.20
2022-10-17T20:31:43.585Z,24.40
2022-10-17T20:34:13.947Z,28.10
2022-10-17T20:36:42.123Z,28.00
2022-10-17T20:39:12.279Z,27.30
2022-10-17T20:41:40.668Z,28.70
2022-10-17T20:44:08.828Z,29.40
2022-10-17T20:46:39.768Z,31.70
2022-10-17T20:49:18.356Z,32.20
2022-10-17T20:51:46.647Z,31.40
2022-10-17T20:54:14.649Z,31.70
2022-10-17T20:56:42.567Z,31.80
2022-10-17T20:59:16.589Z,31.00
2022-10-17T21:01:45.462Z,31.20
2022-10-17T21:07:02.317Z,32.50
2022-10-17T21:09:31.647Z,31.10
2022-10-17T21:14:36.424Z,30.80
2022-10-17T21:17:05.407Z,30.50
2022-10-17T21:19:34.036Z,30.40
2022-10-17T21:22:01.870Z,31.90
2022-10-17T21:24:30.993Z,28.80
2022-10-17T21:26:59.014Z,29.00
2022-10-17T21:29:26.957Z,30.50
2022-10-17T21:31:54.848Z,29.80
2022-10-17T21:34:26.506Z,30.90
2022-10-17T21:36:54.439Z,31.00
2022-10-17T21:39:24.829Z,29.20
2022-10-17T21:41:53.767Z,28.80
2022-10-17T21:44:25.247Z,29.90
2022-10-17T21:46:54.296Z,27.50
2022-10-17T21:49:24.272Z,27.90
2022-10-17T21:51:52.669Z,26.60
2022-10-17T21:54:23.045Z,26.80
2022-10-17T21:56:51.676Z,27.60
2022-10-17T21:59:19.511Z,26.00
2022-10-17T22:01:47.435Z,24.20
2022-10-17T22:04:17.604Z,26.60
2022-10-17T22:06:47.493Z,26.50
2022-10-17T22:09:18.577Z,27.90
2022-10-17T22:11:49.474Z,26.70
2022-10-17T22:14:19.502Z,26.00
2022-10-17T22:16:49.002Z,26.00
2022-10-17T22:19:20.275Z,25.60
2022-10-17T22:21:48.825Z,25.00
2022-10-17T22:24:18.561Z,23.60
2022-10-17T22:26:46.764Z,22.70
2022-10-17T22:29:14.736Z,23.10
2022-10-17T22:31:42.868Z,23.50
2022-10-17T22:34:13.513Z,25.10
2022-10-17T22:36:42.464Z,22.50
2022-10-17T22:39:11.123Z,22.90
2022-10-17T22:41:39.110Z,22.00
2022-10-17T22:44:07.189Z,22.50
2022-10-17T22:46:35.996Z,22.70
2022-10-17T22:49:04.304Z,23.40
2022-10-17T22:51:32.181Z,22.40
2022-10-17T22:54:00.042Z,20.90
2022-10-17T22:56:28.131Z,20.90
2022-10-17T22:58:56.010Z,20.00
2022-10-17T23:01:25.836Z,19.60
2022-10-17T23:03:54.092Z,18.20
2022-10-17T23:06:23.871Z,18.20
2022-10-17T23:08:52.360Z,19.20
2022-10-17T23:11:21.036Z,19.10
2022-10-17T23:13:49.142Z,20.10
2022-10-17T23:16:17.299Z,20.50
2022-10-17T23:18:45.640Z,21.30
2022-10-17T23:21:13.694Z,20.30
2022-10-17T23:23:41.796Z,21.70
2022-10-17T23:26:12.457Z,22.00
2022-10-17T23:28:41.221Z,22.90
2022-10-17T23:31:18.376Z,20.90
2022-10-17T23:33:47.622Z,20.40
2022-10-17T23:36:18.126Z,18.40
2022-10-17T23:38:47.670Z,18.00
2022-10-17T23:41:16.635Z,18.10
2022-10-17T23:43:44.873Z,17.30
2022-10-17T23:46:13.108Z,16.80
2022-10-17T23:48:41.241Z,17.30
2022-10-17T23:51:10.428Z,16.00
2022-10-17T23:53:39.201Z,16.60
2022-10-17T23:56:09.090Z,17.80
2022-10-17T23:58:38.105Z,17.30
